sensor_id;sensor_type;location;lat;lon;timestamp;P1;durP1;ratioP1;P2;durP2;ratioP2
12768;SDS011;6448;48.916;8.990;2023-02-21T00:00:41;2.47;;;2.28;;
12768;SDS011;6448;48.916;8.990;2023-02-21T00:02:01;2.55;;;2.35;;
12768;SDS011;6448;48.916;8.990;2023-02-21T00:03:20;2.83;;;2.42;;
12768;SDS011;6448;48.916;8.990;2023-02-21T00:04:40;2.85;;;2.65;;
12768;SDS011;6448;48.916;8.990;2023-02-21T00:05:59;2.92;;;2.63;;
12768;SDS011;6448;48.916;8.990;2023-02-21T00:07:20;2.70;;;2.50;;
12768;SDS011;6448;48.916;8.990;2023-02-21T00:08:40;2.72;;;2.53;;
12768;SDS011;6448;48.916;8.990;2023-02-21T00:09:59;2.80;;;2.60;;
12768;SDS011;6448;48.916;8.990;2023-02-21T00:11:18;2.78;;;2.58;;
12768;SDS011;6448;48.916;8.990;2023-02-21T00:12:38;2.60;;;2.40;;
12768;SDS011;6448;48.916;8.990;2023-02-21T00:13:57;2.65;;;2.42;;
12768;SDS011;6448;48.916;8.990;2023-02-21T00:15:16;3.03;;;2.50;;
12768;SDS011;6448;48.916;8.990;2023-02-21T00:16:36;2.80;;;2.50;;
12768;SDS011;6448;48.916;8.990;2023-02-21T00:17:55;2.80;;;2.60;;
12768;SDS011;6448;48.916;8.990;2023-02-21T00:19:14;2.88;;;2.60;;
12768;SDS011;6448;48.916;8.990;2023-02-21T00:20:33;2.70;;;2.50;;
12768;SDS011;6448;48.916;8.990;2023-02-21T00:21:53;3.97;;;2.47;;
12768;SDS011;6448;48.916;8.990;2023-02-21T00:23:14;3.13;;;2.70;;
12768;SDS011;6448;48.916;8.990;2023-02-21T00:24:33;2.92;;;2.70;;
12768;SDS011;6448;48.916;8.990;2023-02-21T00:25:53;2.78;;;2.55;;
12768;SDS011;6448;48.916;8.990;2023-02-21T00:27:12;2.75;;;2.55;;
12768;SDS011;6448;48.916;8.990;2023-02-21T00:28:32;2.97;;;2.67;;
12768;SDS011;6448;48.916;8.990;2023-02-21T00:29:51;2.90;;;2.60;;
12768;SDS011;6448;48.916;8.990;2023-02-21T00:31:10;2.60;;;2.40;;
12768;SDS011;6448;48.916;8.990;2023-02-21T00:32:30;3.20;;;2.40;;
12768;SDS011;6448;48.916;8.990;2023-02-21T00:33:49;3.53;;;2.50;;
12768;SDS011;6448;48.916;8.990;2023-02-21T00:35:09;2.47;;;2.28;;
12768;SDS011;6448;48.916;8.990;2023-02-21T00:36:28;2.90;;;2.60;;
12768;SDS011;6448;48.916;8.990;2023-02-21T00:37:48;3.05;;;2.30;;
12768;SDS011;6448;48.916;8.990;2023-02-21T00:39:09;2.50;;;2.30;;
12768;SDS011;6448;48.916;8.990;2023-02-21T00:40:28;2.30;;;2.10;;
12768;SDS011;6448;48.916;8.990;2023-02-21T00:41:48;2.50;;;2.30;;
12768;SDS011;6448;48.916;8.990;2023-02-21T00:43:07;2.42;;;2.22;;
12768;SDS011;6448;48.916;8.990;2023-02-21T00:44:26;2.20;;;2.00;;
12768;SDS011;6448;48.916;8.990;2023-02-21T00:45:46;2.60;;;2.40;;
12768;SDS011;6448;48.916;8.990;2023-02-21T00:47:05;3.10;;;2.35;;
12768;SDS011;6448;48.916;8.990;2023-02-21T00:48:24;2.50;;;2.30;;
12768;SDS011;6448;48.916;8.990;2023-02-21T00:49:44;2.40;;;2.20;;
12768;SDS011;6448;48.916;8.990;2023-02-21T00:51:03;2.67;;;2.47;;
12768;SDS011;6448;48.916;8.990;2023-02-21T00:52:23;2.58;;;2.38;;
12768;SDS011;6448;48.916;8.990;2023-02-21T00:53:42;2.92;;;2.63;;
12768;SDS011;6448;48.916;8.990;2023-02-21T00:55:03;2.90;;;2.70;;
12768;SDS011;6448;48.916;8.990;2023-02-21T00:56:23;2.60;;;2.40;;
12768;SDS011;6448;48.916;8.990;2023-02-21T00:57:42;2.90;;;2.70;;
12768;SDS011;6448;48.916;8.990;2023-02-21T00:59:01;3.00;;;2.70;;
12768;SDS011;6448;48.916;8.990;2023-02-21T01:00:21;2.85;;;2.65;;
12768;SDS011;6448;48.916;8.990;2023-02-21T01:01:42;2.83;;;2.63;;
12768;SDS011;6448;48.916;8.990;2023-02-21T01:03:02;2.78;;;2.40;;
12768;SDS011;6448;48.916;8.990;2023-02-21T01:04:22;2.20;;;2.00;;
12768;SDS011;6448;48.916;8.990;2023-02-21T01:05:41;2.30;;;2.10;;
12768;SDS011;6448;48.916;8.990;2023-02-21T01:07:03;2.38;;;2.17;;
12768;SDS011;6448;48.916;8.990;2023-02-21T01:08:22;2.50;;;2.30;;
12768;SDS011;6448;48.916;8.990;2023-02-21T01:09:41;2.65;;;2.22;;
12768;SDS011;6448;48.916;8.990;2023-02-21T01:11:02;2.63;;;2.42;;
12768;SDS011;6448;48.916;8.990;2023-02-21T01:12:22;2.40;;;2.20;;
12768;SDS011;6448;48.916;8.990;2023-02-21T01:13:42;2.50;;;2.30;;
12768;SDS011;6448;48.916;8.990;2023-02-21T01:15:02;2.57;;;2.37;;
12768;SDS011;6448;48.916;8.990;2023-02-21T01:16:22;2.30;;;2.10;;
12768;SDS011;6448;48.916;8.990;2023-02-21T01:17:41;2.40;;;2.20;;
12768;SDS011;6448;48.916;8.990;2023-02-21T01:19:01;2.40;;;2.20;;
12768;SDS011;6448;48.916;8.990;2023-02-21T01:20:21;2.63;;;2.42;;
12768;SDS011;6448;48.916;8.990;2023-02-21T01:21:40;2.35;;;2.15;;
12768;SDS011;6448;48.916;8.990;2023-02-21T01:22:59;2.50;;;2.20;;
12768;SDS011;6448;48.916;8.990;2023-02-21T01:24:19;2.50;;;2.30;;
12768;SDS011;6448;48.916;8.990;2023-02-21T01:25:38;2.42;;;2.22;;
12768;SDS011;6448;48.916;8.990;2023-02-21T01:27:01;2.25;;;2.05;;
12768;SDS011;6448;48.916;8.990;2023-02-21T01:28:22;2.60;;;2.40;;
12768;SDS011;6448;48.916;8.990;2023-02-21T01:29:42;2.55;;;2.30;;
12768;SDS011;6448;48.916;8.990;2023-02-21T01:31:02;2.47;;;2.28;;
12768;SDS011;6448;48.916;8.990;2023-02-21T01:32:21;2.38;;;2.17;;
12768;SDS011;6448;48.916;8.990;2023-02-21T01:33:41;2.20;;;2.00;;
12768;SDS011;6448;48.916;8.990;2023-02-21T01:35:00;2.28;;;2.08;;
12768;SDS011;6448;48.916;8.990;2023-02-21T01:36:20;2.65;;;2.00;;
12768;SDS011;6448;48.916;8.990;2023-02-21T01:37:39;2.28;;;2.08;;
12768;SDS011;6448;48.916;8.990;2023-02-21T01:38:59;2.30;;;2.00;;
12768;SDS011;6448;48.916;8.990;2023-02-21T01:40:18;2.00;;;1.80;;
12768;SDS011;6448;48.916;8.990;2023-02-21T01:41:37;2.53;;;2.03;;
12768;SDS011;6448;48.916;8.990;2023-02-21T01:42:58;2.20;;;2.00;;
12768;SDS011;6448;48.916;8.990;2023-02-21T01:44:27;2.15;;;1.95;;
12768;SDS011;6448;48.916;8.990;2023-02-21T01:45:50;2.25;;;2.05;;
12768;SDS011;6448;48.916;8.990;2023-02-21T01:47:12;2.20;;;2.00;;
12768;SDS011;6448;48.916;8.990;2023-02-21T01:48:32;2.15;;;1.95;;
12768;SDS011;6448;48.916;8.990;2023-02-21T01:49:51;2.33;;;2.00;;
12768;SDS011;6448;48.916;8.990;2023-02-21T01:51:11;2.30;;;2.10;;
12768;SDS011;6448;48.916;8.990;2023-02-21T01:52:33;2.20;;;2.00;;
12768;SDS011;6448;48.916;8.990;2023-02-21T01:53:52;2.10;;;1.90;;
12768;SDS011;6448;48.916;8.990;2023-02-21T01:55:13;2.33;;;2.00;;
12768;SDS011;6448;48.916;8.990;2023-02-21T01:56:32;2.03;;;1.92;;
12768;SDS011;6448;48.916;8.990;2023-02-21T01:57:54;2.53;;;2.25;;
12768;SDS011;6448;48.916;8.990;2023-02-21T01:59:17;2.40;;;2.20;;
12768;SDS011;6448;48.916;8.990;2023-02-21T02:00:40;2.25;;;1.90;;
12768;SDS011;6448;48.916;8.990;2023-02-21T02:02:00;1.85;;;1.75;;
12768;SDS011;6448;48.916;8.990;2023-02-21T02:03:23;1.83;;;1.73;;
12768;SDS011;6448;48.916;8.990;2023-02-21T02:04:43;1.58;;;1.40;;
12768;SDS011;6448;48.916;8.990;2023-02-21T02:06:06;1.58;;;1.48;;
12768;SDS011;6448;48.916;8.990;2023-02-21T02:07:27;1.70;;;1.50;;
12768;SDS011;6448;48.916;8.990;2023-02-21T02:08:46;1.42;;;1.33;;
12768;SDS011;6448;48.916;8.990;2023-02-21T02:10:10;2.42;;;1.70;;
12768;SDS011;6448;48.916;8.990;2023-02-21T02:11:37;1.77;;;1.65;;
12768;SDS011;6448;48.916;8.990;2023-02-21T02:13:27;1.70;;;1.50;;
12768;SDS011;6448;48.916;8.990;2023-02-21T02:14:44;1.50;;;1.40;;
12768;SDS011;6448;48.916;8.990;2023-02-21T02:15:55;2.17;;;2.00;;
12768;SDS011;6448;48.916;8.990;2023-02-21T02:17:03;2.27;;;2.07;;
12768;SDS011;6448;48.916;8.990;2023-02-21T02:18:17;2.30;;;2.00;;
12768;SDS011;6448;48.916;8.990;2023-02-21T02:19:38;2.40;;;2.20;;
12768;SDS011;6448;48.916;8.990;2023-02-21T02:21:31;2.10;;;1.90;;
12768;SDS011;6448;48.916;8.990;2023-02-21T02:22:50;2.13;;;1.95;;
12768;SDS011;6448;48.916;8.990;2023-02-21T02:24:27;2.10;;;1.90;;
12768;SDS011;6448;48.916;8.990;2023-02-21T02:25:42;2.33;;;2.13;;
12768;SDS011;6448;48.916;8.990;2023-02-21T02:28:32;2.67;;;2.30;;
12768;SDS011;6448;48.916;8.990;2023-02-21T02:30:05;2.63;;;2.30;;
12768;SDS011;6448;48.916;8.990;2023-02-21T02:31:27;2.20;;;2.00;;
12768;SDS011;6448;48.916;8.990;2023-02-21T02:32:45;2.30;;;2.00;;
12768;SDS011;6448;48.916;8.990;2023-02-21T02:35:37;2.10;;;1.90;;
12768;SDS011;6448;48.916;8.990;2023-02-21T02:36:43;2.20;;;2.00;;
12768;SDS011;6448;48.916;8.990;2023-02-21T02:37:51;2.25;;;2.00;;
12768;SDS011;6448;48.916;8.990;2023-02-21T02:38:58;2.22;;;2.03;;
12768;SDS011;6448;48.916;8.990;2023-02-21T02:40:09;1.80;;;1.70;;
12768;SDS011;6448;48.916;8.990;2023-02-21T02:41:23;1.70;;;1.60;;
12768;SDS011;6448;48.916;8.990;2023-02-21T02:42:37;1.60;;;1.50;;
12768;SDS011;6448;48.916;8.990;2023-02-21T02:43:48;1.73;;;1.63;;
12768;SDS011;6448;48.916;8.990;2023-02-21T02:44:55;1.48;;;1.38;;
12768;SDS011;6448;48.916;8.990;2023-02-21T02:46:01;1.50;;;1.40;;
12768;SDS011;6448;48.916;8.990;2023-02-21T02:47:10;1.50;;;1.40;;
12768;SDS011;6448;48.916;8.990;2023-02-21T02:48:23;1.40;;;1.23;;
12768;SDS011;6448;48.916;8.990;2023-02-21T02:49:30;1.40;;;1.30;;
12768;SDS011;6448;48.916;8.990;2023-02-21T02:50:36;2.13;;;1.50;;
12768;SDS011;6448;48.916;8.990;2023-02-21T02:51:40;1.60;;;1.50;;
12768;SDS011;6448;48.916;8.990;2023-02-21T02:52:49;1.50;;;1.40;;
12768;SDS011;6448;48.916;8.990;2023-02-21T02:53:54;1.63;;;1.50;;
12768;SDS011;6448;48.916;8.990;2023-02-21T02:54:58;1.58;;;1.48;;
12768;SDS011;6448;48.916;8.990;2023-02-21T02:56:02;1.70;;;1.60;;
12768;SDS011;6448;48.916;8.990;2023-02-21T02:57:08;1.90;;;1.70;;
12768;SDS011;6448;48.916;8.990;2023-02-21T02:58:12;2.03;;;1.67;;
12768;SDS011;6448;48.916;8.990;2023-02-21T02:59:14;1.70;;;1.60;;
12768;SDS011;6448;48.916;8.990;2023-02-21T03:00:20;1.67;;;1.45;;
12768;SDS011;6448;48.916;8.990;2023-02-21T03:01:30;1.50;;;1.40;;
12768;SDS011;6448;48.916;8.990;2023-02-21T03:03:02;1.48;;;1.38;;
12768;SDS011;6448;48.916;8.990;2023-02-21T03:04:24;1.60;;;1.50;;
12768;SDS011;6448;48.916;8.990;2023-02-21T03:05:44;1.63;;;1.50;;
12768;SDS011;6448;48.916;8.990;2023-02-21T03:06:59;1.55;;;1.45;;
12768;SDS011;6448;48.916;8.990;2023-02-21T03:08:07;1.60;;;1.50;;
12768;SDS011;6448;48.916;8.990;2023-02-21T03:09:22;1.60;;;1.50;;
12768;SDS011;6448;48.916;8.990;2023-02-21T03:10:32;1.50;;;1.40;;
12768;SDS011;6448;48.916;8.990;2023-02-21T03:11:42;1.63;;;1.50;;
12768;SDS011;6448;48.916;8.990;2023-02-21T03:12:54;1.60;;;1.50;;
12768;SDS011;6448;48.916;8.990;2023-02-21T03:14:06;1.70;;;1.60;;
12768;SDS011;6448;48.916;8.990;2023-02-21T03:15:14;2.38;;;1.92;;
12768;SDS011;6448;48.916;8.990;2023-02-21T03:16:22;2.63;;;2.00;;
12768;SDS011;6448;48.916;8.990;2023-02-21T03:17:25;2.30;;;1.90;;
12768;SDS011;6448;48.916;8.990;2023-02-21T03:18:32;2.22;;;2.03;;
12768;SDS011;6448;48.916;8.990;2023-02-21T03:19:37;2.10;;;1.90;;
12768;SDS011;6448;48.916;8.990;2023-02-21T03:20:41;1.88;;;1.70;;
12768;SDS011;6448;48.916;8.990;2023-02-21T03:21:46;1.70;;;1.60;;
12768;SDS011;6448;48.916;8.990;2023-02-21T03:22:52;1.85;;;1.63;;
12768;SDS011;6448;48.916;8.990;2023-02-21T03:23:55;1.70;;;1.60;;
12768;SDS011;6448;48.916;8.990;2023-02-21T03:25:00;1.60;;;1.50;;
12768;SDS011;6448;48.916;8.990;2023-02-21T03:26:05;1.80;;;1.70;;
12768;SDS011;6448;48.916;8.990;2023-02-21T03:27:13;1.60;;;1.50;;
12768;SDS011;6448;48.916;8.990;2023-02-21T03:28:45;1.50;;;1.40;;
12768;SDS011;6448;48.916;8.990;2023-02-21T03:29:47;1.60;;;1.50;;
12768;SDS011;6448;48.916;8.990;2023-02-21T03:30:50;1.83;;;1.50;;
12768;SDS011;6448;48.916;8.990;2023-02-21T03:31:57;1.67;;;1.50;;
12768;SDS011;6448;48.916;8.990;2023-02-21T03:33:09;1.95;;;1.42;;
12768;SDS011;6448;48.916;8.990;2023-02-21T03:34:11;1.40;;;1.30;;
12768;SDS011;6448;48.916;8.990;2023-02-21T03:35:13;1.40;;;1.30;;
12768;SDS011;6448;48.916;8.990;2023-02-21T03:36:17;1.45;;;1.35;;
12768;SDS011;6448;48.916;8.990;2023-02-21T03:37:19;1.40;;;1.30;;
12768;SDS011;6448;48.916;8.990;2023-02-21T03:38:23;1.73;;;1.63;;
12768;SDS011;6448;48.916;8.990;2023-02-21T03:39:27;2.30;;;1.85;;
12768;SDS011;6448;48.916;8.990;2023-02-21T03:40:30;2.10;;;1.90;;
12768;SDS011;6448;48.916;8.990;2023-02-21T03:41:34;2.03;;;1.85;;
12768;SDS011;6448;48.916;8.990;2023-02-21T03:42:35;2.67;;;1.83;;
12768;SDS011;6448;48.916;8.990;2023-02-21T03:43:36;2.08;;;1.80;;
12768;SDS011;6448;48.916;8.990;2023-02-21T03:44:39;1.95;;;1.80;;
12768;SDS011;6448;48.916;8.990;2023-02-21T03:45:40;1.85;;;1.58;;
12768;SDS011;6448;48.916;8.990;2023-02-21T03:46:51;1.90;;;1.63;;
12768;SDS011;6448;48.916;8.990;2023-02-21T03:47:52;1.70;;;1.60;;
12768;SDS011;6448;48.916;8.990;2023-02-21T03:48:54;1.60;;;1.50;;
12768;SDS011;6448;48.916;8.990;2023-02-21T03:50:00;1.65;;;1.55;;
12768;SDS011;6448;48.916;8.990;2023-02-21T03:51:02;1.70;;;1.60;;
12768;SDS011;6448;48.916;8.990;2023-02-21T03:52:11;1.70;;;1.60;;
12768;SDS011;6448;48.916;8.990;2023-02-21T03:53:13;1.80;;;1.70;;
12768;SDS011;6448;48.916;8.990;2023-02-21T03:54:16;1.70;;;1.60;;
12768;SDS011;6448;48.916;8.990;2023-02-21T03:55:22;1.70;;;1.60;;
12768;SDS011;6448;48.916;8.990;2023-02-21T03:56:23;1.60;;;1.50;;
12768;SDS011;6448;48.916;8.990;2023-02-21T03:58:00;1.60;;;1.50;;
12768;SDS011;6448;48.916;8.990;2023-02-21T03:59:04;1.70;;;1.50;;
12768;SDS011;6448;48.916;8.990;2023-02-21T04:00:06;1.50;;;1.40;;
12768;SDS011;6448;48.916;8.990;2023-02-21T04:01:15;1.52;;;1.30;;
12768;SDS011;6448;48.916;8.990;2023-02-21T04:02:16;1.63;;;1.40;;
12768;SDS011;6448;48.916;8.990;2023-02-21T04:03:19;1.60;;;1.50;;
12768;SDS011;6448;48.916;8.990;2023-02-21T04:04:30;1.35;;;1.20;;
12768;SDS011;6448;48.916;8.990;2023-02-21T04:05:40;1.45;;;1.30;;
12768;SDS011;6448;48.916;8.990;2023-02-21T04:06:42;1.65;;;1.52;;
12768;SDS011;6448;48.916;8.990;2023-02-21T04:07:47;1.60;;;1.40;;
12768;SDS011;6448;48.916;8.990;2023-02-21T04:08:48;1.70;;;1.45;;
12768;SDS011;6448;48.916;8.990;2023-02-21T04:09:51;1.50;;;1.40;;
12768;SDS011;6448;48.916;8.990;2023-02-21T04:11:03;1.80;;;1.40;;
12768;SDS011;6448;48.916;8.990;2023-02-21T04:12:08;1.45;;;1.35;;
12768;SDS011;6448;48.916;8.990;2023-02-21T04:13:10;1.40;;;1.30;;
12768;SDS011;6448;48.916;8.990;2023-02-21T04:14:16;1.50;;;1.30;;
12768;SDS011;6448;48.916;8.990;2023-02-21T04:15:17;1.40;;;1.30;;
12768;SDS011;6448;48.916;8.990;2023-02-21T04:16:20;1.35;;;1.25;;
12768;SDS011;6448;48.916;8.990;2023-02-21T04:17:22;1.50;;;1.38;;
12768;SDS011;6448;48.916;8.990;2023-02-21T04:18:26;1.48;;;1.30;;
12768;SDS011;6448;48.916;8.990;2023-02-21T04:19:30;1.50;;;1.40;;
12768;SDS011;6448;48.916;8.990;2023-02-21T04:20:32;1.48;;;1.30;;
12768;SDS011;6448;48.916;8.990;2023-02-21T04:21:35;1.60;;;1.20;;
12768;SDS011;6448;48.916;8.990;2023-02-21T04:22:37;1.38;;;1.27;;
12768;SDS011;6448;48.916;8.990;2023-02-21T04:23:41;1.55;;;1.30;;
12768;SDS011;6448;48.916;8.990;2023-02-21T04:24:43;1.35;;;1.25;;
12768;SDS011;6448;48.916;8.990;2023-02-21T04:25:45;1.60;;;1.50;;
12768;SDS011;6448;48.916;8.990;2023-02-21T04:26:53;1.70;;;1.42;;
12768;SDS011;6448;48.916;8.990;2023-02-21T04:27:56;1.50;;;1.40;;
12768;SDS011;6448;48.916;8.990;2023-02-21T04:28:58;1.60;;;1.50;;
12768;SDS011;6448;48.916;8.990;2023-02-21T04:29:58;1.40;;;1.30;;
12768;SDS011;6448;48.916;8.990;2023-02-21T04:31:00;1.40;;;1.30;;
12768;SDS011;6448;48.916;8.990;2023-02-21T04:32:02;1.60;;;1.50;;
12768;SDS011;6448;48.916;8.990;2023-02-21T04:33:05;1.50;;;1.40;;
12768;SDS011;6448;48.916;8.990;2023-02-21T04:34:07;1.60;;;1.50;;
12768;SDS011;6448;48.916;8.990;2023-02-21T04:35:09;1.60;;;1.50;;
12768;SDS011;6448;48.916;8.990;2023-02-21T04:36:10;1.50;;;1.40;;
12768;SDS011;6448;48.916;8.990;2023-02-21T04:37:16;1.88;;;1.50;;
12768;SDS011;6448;48.916;8.990;2023-02-21T04:38:17;1.80;;;1.30;;
12768;SDS011;6448;48.916;8.990;2023-02-21T04:39:20;1.70;;;1.60;;
12768;SDS011;6448;48.916;8.990;2023-02-21T04:40:22;1.40;;;1.30;;
12768;SDS011;6448;48.916;8.990;2023-02-21T04:41:24;1.40;;;1.30;;
12768;SDS011;6448;48.916;8.990;2023-02-21T04:42:25;1.63;;;1.52;;
12768;SDS011;6448;48.916;8.990;2023-02-21T04:43:27;1.42;;;1.30;;
12768;SDS011;6448;48.916;8.990;2023-02-21T04:44:28;1.40;;;1.30;;
12768;SDS011;6448;48.916;8.990;2023-02-21T04:45:30;1.80;;;1.50;;
12768;SDS011;6448;48.916;8.990;2023-02-21T04:46:31;1.47;;;1.37;;
12768;SDS011;6448;48.916;8.990;2023-02-21T04:47:32;1.50;;;1.40;;
12768;SDS011;6448;48.916;8.990;2023-02-21T04:48:33;2.00;;;1.48;;
12768;SDS011;6448;48.916;8.990;2023-02-21T04:49:35;1.80;;;1.50;;
12768;SDS011;6448;48.916;8.990;2023-02-21T04:50:36;2.15;;;1.67;;
12768;SDS011;6448;48.916;8.990;2023-02-21T04:51:37;1.60;;;1.50;;
12768;SDS011;6448;48.916;8.990;2023-02-21T04:52:38;1.85;;;1.63;;
12768;SDS011;6448;48.916;8.990;2023-02-21T04:53:40;1.50;;;1.40;;
12768;SDS011;6448;48.916;8.990;2023-02-21T04:54:44;1.70;;;1.50;;
12768;SDS011;6448;48.916;8.990;2023-02-21T04:55:45;1.67;;;1.58;;
12768;SDS011;6448;48.916;8.990;2023-02-21T04:56:46;1.42;;;1.33;;
12768;SDS011;6448;48.916;8.990;2023-02-21T04:57:48;1.63;;;1.53;;
12768;SDS011;6448;48.916;8.990;2023-02-21T04:58:49;1.47;;;1.37;;
12768;SDS011;6448;48.916;8.990;2023-02-21T04:59:54;1.50;;;1.40;;
12768;SDS011;6448;48.916;8.990;2023-02-21T05:00:56;1.40;;;1.30;;
12768;SDS011;6448;48.916;8.990;2023-02-21T05:01:58;1.50;;;1.40;;
12768;SDS011;6448;48.916;8.990;2023-02-21T05:03:00;1.63;;;1.50;;
12768;SDS011;6448;48.916;8.990;2023-02-21T05:04:01;1.70;;;1.60;;
12768;SDS011;6448;48.916;8.990;2023-02-21T05:05:02;1.70;;;1.60;;
12768;SDS011;6448;48.916;8.990;2023-02-21T05:06:04;2.00;;;1.80;;
12768;SDS011;6448;48.916;8.990;2023-02-21T05:07:06;1.80;;;1.70;;
12768;SDS011;6448;48.916;8.990;2023-02-21T05:08:06;1.87;;;1.70;;
12768;SDS011;6448;48.916;8.990;2023-02-21T05:09:08;2.03;;;1.80;;
12768;SDS011;6448;48.916;8.990;2023-02-21T05:10:10;1.97;;;1.87;;
12768;SDS011;6448;48.916;8.990;2023-02-21T05:11:13;1.80;;;1.70;;
12768;SDS011;6448;48.916;8.990;2023-02-21T05:12:14;2.33;;;1.88;;
12768;SDS011;6448;48.916;8.990;2023-02-21T05:13:15;1.80;;;1.70;;
12768;SDS011;6448;48.916;8.990;2023-02-21T05:14:16;1.73;;;1.63;;
12768;SDS011;6448;48.916;8.990;2023-02-21T05:15:18;1.63;;;1.52;;
12768;SDS011;6448;48.916;8.990;2023-02-21T05:16:19;1.70;;;1.60;;
12768;SDS011;6448;48.916;8.990;2023-02-21T05:17:21;1.70;;;1.60;;
12768;SDS011;6448;48.916;8.990;2023-02-21T05:18:21;1.63;;;1.52;;
12768;SDS011;6448;48.916;8.990;2023-02-21T05:19:27;1.50;;;1.40;;
12768;SDS011;6448;48.916;8.990;2023-02-21T05:20:28;1.40;;;1.30;;
12768;SDS011;6448;48.916;8.990;2023-02-21T05:21:32;1.70;;;1.40;;
12768;SDS011;6448;48.916;8.990;2023-02-21T05:22:35;1.40;;;1.30;;
12768;SDS011;6448;48.916;8.990;2023-02-21T05:23:39;1.83;;;1.63;;
12768;SDS011;6448;48.916;8.990;2023-02-21T05:24:42;1.50;;;1.40;;
12768;SDS011;6448;48.916;8.990;2023-02-21T05:25:44;1.52;;;1.42;;
12768;SDS011;6448;48.916;8.990;2023-02-21T05:26:46;1.50;;;1.40;;
12768;SDS011;6448;48.916;8.990;2023-02-21T05:27:47;1.55;;;1.45;;
12768;SDS011;6448;48.916;8.990;2023-02-21T05:28:49;1.60;;;1.50;;
12768;SDS011;6448;48.916;8.990;2023-02-21T05:29:51;1.50;;;1.40;;
12768;SDS011;6448;48.916;8.990;2023-02-21T05:30:54;1.70;;;1.60;;
12768;SDS011;6448;48.916;8.990;2023-02-21T05:31:55;1.58;;;1.48;;
12768;SDS011;6448;48.916;8.990;2023-02-21T05:32:57;1.60;;;1.50;;
12768;SDS011;6448;48.916;8.990;2023-02-21T05:33:58;2.25;;;1.70;;
12768;SDS011;6448;48.916;8.990;2023-02-21T05:34:59;1.98;;;1.65;;
12768;SDS011;6448;48.916;8.990;2023-02-21T05:36:00;1.90;;;1.80;;
12768;SDS011;6448;48.916;8.990;2023-02-21T05:37:02;1.90;;;1.70;;
12768;SDS011;6448;48.916;8.990;2023-02-21T05:38:03;1.63;;;1.53;;
12768;SDS011;6448;48.916;8.990;2023-02-21T05:39:05;1.50;;;1.40;;
12768;SDS011;6448;48.916;8.990;2023-02-21T05:40:06;2.20;;;1.60;;
12768;SDS011;6448;48.916;8.990;2023-02-21T05:41:13;1.40;;;1.30;;
12768;SDS011;6448;48.916;8.990;2023-02-21T05:42:14;1.58;;;1.42;;
12768;SDS011;6448;48.916;8.990;2023-02-21T05:43:16;1.77;;;1.60;;
12768;SDS011;6448;48.916;8.990;2023-02-21T05:44:17;1.50;;;1.40;;
12768;SDS011;6448;48.916;8.990;2023-02-21T05:45:19;1.60;;;1.50;;
12768;SDS011;6448;48.916;8.990;2023-02-21T05:46:22;1.88;;;1.60;;
12768;SDS011;6448;48.916;8.990;2023-02-21T05:47:25;1.60;;;1.50;;
12768;SDS011;6448;48.916;8.990;2023-02-21T05:48:25;3.37;;;2.43;;
12768;SDS011;6448;48.916;8.990;2023-02-21T05:49:27;4.57;;;4.07;;
12768;SDS011;6448;48.916;8.990;2023-02-21T05:50:29;6.10;;;5.50;;
12768;SDS011;6448;48.916;8.990;2023-02-21T05:51:32;5.57;;;4.97;;
12768;SDS011;6448;48.916;8.990;2023-02-21T05:52:35;7.28;;;6.35;;
12768;SDS011;6448;48.916;8.990;2023-02-21T05:53:36;11.43;;;10.23;;
12768;SDS011;6448;48.916;8.990;2023-02-21T05:54:38;11.20;;;10.05;;
12768;SDS011;6448;48.916;8.990;2023-02-21T05:55:40;9.05;;;8.10;;
12768;SDS011;6448;48.916;8.990;2023-02-21T05:56:43;4.63;;;4.23;;
12768;SDS011;6448;48.916;8.990;2023-02-21T05:57:46;3.20;;;2.90;;
12768;SDS011;6448;48.916;8.990;2023-02-21T05:58:46;2.60;;;2.40;;
12768;SDS011;6448;48.916;8.990;2023-02-21T05:59:48;2.63;;;2.33;;
12768;SDS011;6448;48.916;8.990;2023-02-21T06:00:50;3.00;;;2.70;;
12768;SDS011;6448;48.916;8.990;2023-02-21T06:01:52;3.90;;;3.60;;
12768;SDS011;6448;48.916;8.990;2023-02-21T06:02:54;4.03;;;3.63;;
12768;SDS011;6448;48.916;8.990;2023-02-21T06:03:56;4.60;;;4.10;;
12768;SDS011;6448;48.916;8.990;2023-02-21T06:04:57;5.13;;;4.60;;
12768;SDS011;6448;48.916;8.990;2023-02-21T06:05:58;5.57;;;5.07;;
12768;SDS011;6448;48.916;8.990;2023-02-21T06:07:00;5.10;;;4.60;;
12768;SDS011;6448;48.916;8.990;2023-02-21T06:08:02;4.60;;;4.20;;
12768;SDS011;6448;48.916;8.990;2023-02-21T06:09:03;4.45;;;3.47;;
12768;SDS011;6448;48.916;8.990;2023-02-21T06:10:05;3.25;;;2.95;;
12768;SDS011;6448;48.916;8.990;2023-02-21T06:11:09;2.70;;;2.50;;
12768;SDS011;6448;48.916;8.990;2023-02-21T06:12:12;2.58;;;2.38;;
12768;SDS011;6448;48.916;8.990;2023-02-21T06:13:14;2.40;;;2.20;;
12768;SDS011;6448;48.916;8.990;2023-02-21T06:14:15;2.50;;;2.30;;
12768;SDS011;6448;48.916;8.990;2023-02-21T06:15:18;2.70;;;2.50;;
12768;SDS011;6448;48.916;8.990;2023-02-21T06:16:19;2.70;;;2.50;;
12768;SDS011;6448;48.916;8.990;2023-02-21T06:17:22;2.65;;;2.40;;
12768;SDS011;6448;48.916;8.990;2023-02-21T06:18:23;2.60;;;2.40;;
12768;SDS011;6448;48.916;8.990;2023-02-21T06:19:24;2.53;;;2.30;;
12768;SDS011;6448;48.916;8.990;2023-02-21T06:20:25;2.40;;;2.20;;
12768;SDS011;6448;48.916;8.990;2023-02-21T06:21:27;2.30;;;2.10;;
12768;SDS011;6448;48.916;8.990;2023-02-21T06:22:28;2.50;;;2.30;;
12768;SDS011;6448;48.916;8.990;2023-02-21T06:23:29;2.30;;;2.10;;
12768;SDS011;6448;48.916;8.990;2023-02-21T06:24:30;2.25;;;2.13;;
12768;SDS011;6448;48.916;8.990;2023-02-21T06:25:32;2.13;;;1.98;;
12768;SDS011;6448;48.916;8.990;2023-02-21T06:26:33;2.40;;;2.20;;
12768;SDS011;6448;48.916;8.990;2023-02-21T06:27:37;2.58;;;2.38;;
12768;SDS011;6448;48.916;8.990;2023-02-21T06:28:39;2.50;;;2.30;;
12768;SDS011;6448;48.916;8.990;2023-02-21T06:29:40;2.75;;;2.40;;
12768;SDS011;6448;48.916;8.990;2023-02-21T06:30:41;2.80;;;2.50;;
12768;SDS011;6448;48.916;8.990;2023-02-21T06:31:42;2.50;;;2.30;;
12768;SDS011;6448;48.916;8.990;2023-02-21T06:32:44;2.83;;;2.40;;
12768;SDS011;6448;48.916;8.990;2023-02-21T06:33:45;2.42;;;2.22;;
12768;SDS011;6448;48.916;8.990;2023-02-21T06:34:47;2.55;;;2.35;;
12768;SDS011;6448;48.916;8.990;2023-02-21T06:35:47;2.50;;;2.30;;
12768;SDS011;6448;48.916;8.990;2023-02-21T06:36:50;2.47;;;2.22;;
12768;SDS011;6448;48.916;8.990;2023-02-21T06:37:51;2.30;;;2.10;;
12768;SDS011;6448;48.916;8.990;2023-02-21T06:38:54;2.10;;;1.90;;
12768;SDS011;6448;48.916;8.990;2023-02-21T06:39:56;2.40;;;2.20;;
12768;SDS011;6448;48.916;8.990;2023-02-21T06:40:57;2.28;;;2.08;;
12768;SDS011;6448;48.916;8.990;2023-02-21T06:41:58;2.10;;;1.90;;
12768;SDS011;6448;48.916;8.990;2023-02-21T06:43:01;2.00;;;1.90;;
12768;SDS011;6448;48.916;8.990;2023-02-21T06:44:03;2.08;;;1.88;;
12768;SDS011;6448;48.916;8.990;2023-02-21T06:45:05;2.10;;;1.90;;
12768;SDS011;6448;48.916;8.990;2023-02-21T06:46:06;2.38;;;1.92;;
12768;SDS011;6448;48.916;8.990;2023-02-21T06:47:08;2.10;;;1.90;;
12768;SDS011;6448;48.916;8.990;2023-02-21T06:48:12;2.60;;;2.40;;
12768;SDS011;6448;48.916;8.990;2023-02-21T06:49:14;2.95;;;2.67;;
12768;SDS011;6448;48.916;8.990;2023-02-21T06:50:15;3.15;;;2.85;;
12768;SDS011;6448;48.916;8.990;2023-02-21T06:51:17;3.13;;;2.80;;
12768;SDS011;6448;48.916;8.990;2023-02-21T06:52:18;3.35;;;3.05;;
12768;SDS011;6448;48.916;8.990;2023-02-21T06:53:20;2.85;;;2.65;;
12768;SDS011;6448;48.916;8.990;2023-02-21T06:54:21;2.78;;;2.58;;
12768;SDS011;6448;48.916;8.990;2023-02-21T06:55:24;2.75;;;2.55;;
12768;SDS011;6448;48.916;8.990;2023-02-21T06:56:25;2.90;;;2.60;;
12768;SDS011;6448;48.916;8.990;2023-02-21T06:57:27;2.78;;;2.58;;
12768;SDS011;6448;48.916;8.990;2023-02-21T06:58:29;4.05;;;3.75;;
12768;SDS011;6448;48.916;8.990;2023-02-21T06:59:31;5.80;;;5.30;;
12768;SDS011;6448;48.916;8.990;2023-02-21T07:00:33;7.07;;;6.40;;
12768;SDS011;6448;48.916;8.990;2023-02-21T07:01:33;7.25;;;6.57;;
12768;SDS011;6448;48.916;8.990;2023-02-21T07:02:35;7.88;;;7.18;;
12768;SDS011;6448;48.916;8.990;2023-02-21T07:03:38;8.00;;;7.20;;
12768;SDS011;6448;48.916;8.990;2023-02-21T07:04:42;7.43;;;6.72;;